createdAt,value
2023-05-17T00:00:07.349Z,12.90
2023-05-17T00:03:10.131Z,12.50
2023-05-17T00:05:53.498Z,12.40
2023-05-17T00:08:36.383Z,12.20
2023-05-17T00:11:19.123Z,11.90
2023-05-17T00:14:02.053Z,12.20
2023-05-17T00:16:45.067Z,11.50
2023-05-17T00:19:27.908Z,11.90
2023-05-17T00:22:10.833Z,11.60
2023-05-17T00:24:53.682Z,11.10
2023-05-17T00:27:36.659Z,11.30
2023-05-17T00:30:19.486Z,11.60
2023-05-17T00:33:02.306Z,11.30
2023-05-17T00:35:45.168Z,9.80
2023-05-17T00:38:28.075Z,10.20
2023-05-17T00:41:11.802Z,10.10
2023-05-17T00:43:54.609Z,8.90
2023-05-17T00:46:37.425Z,8.40
2023-05-17T00:49:21.137Z,8.00
2023-05-17T00:52:04.470Z,8.40
2023-05-17T00:54:47.324Z,8.30
2023-05-17T00:57:30.642Z,8.40
2023-05-17T01:00:13.910Z,7.30
2023-05-17T01:03:30.475Z,7.80
2023-05-17T01:06:13.625Z,7.50
2023-05-17T01:08:56.575Z,7.40
2023-05-17T01:12:20.112Z,7.20
2023-05-17T01:15:15.201Z,7.20
2023-05-17T01:18:36.264Z,7.60
2023-05-17T01:21:41.552Z,6.90
2023-05-17T01:24:33.650Z,6.80
2023-05-17T01:27:21.217Z,6.10
2023-05-17T01:30:12.652Z,6.20
2023-05-17T01:32:59.163Z,5.70
2023-05-17T01:35:42.252Z,5.50
2023-05-17T01:38:25.496Z,5.40
2023-05-17T01:41:12.669Z,5.30
2023-05-17T01:44:02.759Z,5.70
2023-05-17T01:46:45.826Z,5.20
2023-05-17T01:49:35.355Z,4.60
2023-05-17T01:52:51.312Z,4.80
2023-05-17T01:55:37.302Z,4.70
2023-05-17T01:58:22.924Z,4.30
2023-05-17T02:01:06.716Z,5.10
2023-05-17T02:03:50.211Z,4.50
2023-05-17T02:06:33.081Z,4.80
2023-05-17T02:09:15.913Z,4.20
2023-05-17T02:11:58.710Z,4.60
2023-05-17T02:14:41.615Z,4.10
2023-05-17T02:17:24.606Z,4.10
2023-05-17T02:20:10.865Z,4.50
2023-05-17T02:22:53.759Z,4.20
2023-05-17T02:25:36.911Z,3.70
2023-05-17T02:28:19.779Z,4.10
2023-05-17T02:31:02.664Z,3.60
2023-05-17T02:33:45.796Z,3.50
2023-05-17T02:36:28.727Z,3.90
2023-05-17T02:39:11.646Z,4.00
2023-05-17T02:41:54.546Z,4.00
2023-05-17T02:44:37.496Z,3.30
2023-05-17T02:47:23.657Z,3.90
2023-05-17T02:50:07.737Z,3.10
2023-05-17T02:52:51.178Z,4.10
2023-05-17T02:55:34.051Z,3.60
2023-05-17T02:58:16.974Z,4.50
2023-05-17T03:00:59.850Z,3.80
2023-05-17T03:03:42.911Z,4.60
2023-05-17T03:06:26.290Z,3.80
2023-05-17T03:09:09.551Z,4.70
2023-05-17T03:11:52.712Z,3.60
2023-05-17T03:14:39.782Z,3.40
2023-05-17T03:17:22.677Z,3.90
2023-05-17T03:20:07.971Z,4.10
2023-05-17T03:22:52.131Z,4.00
2023-05-17T03:25:35.044Z,4.20
2023-05-17T03:28:18.567Z,4.20
2023-05-17T03:31:01.618Z,4.10
2023-05-17T03:33:47.392Z,4.30
2023-05-17T03:36:31.453Z,4.00
2023-05-17T03:39:14.426Z,4.30
2023-05-17T03:41:57.935Z,3.50
2023-05-17T03:44:41.622Z,3.60
2023-05-17T03:47:24.825Z,3.40
2023-05-17T03:50:08.456Z,3.50
2023-05-17T03:52:52.376Z,3.50
2023-05-17T03:55:35.619Z,3.60
2023-05-17T03:58:18.590Z,3.20
2023-05-17T04:01:01.879Z,3.60
2023-05-17T04:03:45.069Z,3.10
2023-05-17T04:06:27.970Z,3.80
2023-05-17T04:09:13.212Z,3.70
2023-05-17T04:11:56.524Z,2.90
2023-05-17T04:14:39.263Z,2.80
2023-05-17T04:17:22.476Z,3.70
2023-05-17T04:20:07.374Z,3.50
2023-05-17T04:22:50.580Z,3.10
2023-05-17T04:25:33.502Z,3.00
2023-05-17T04:28:16.535Z,2.70
2023-05-17T04:30:59.405Z,3.00
2023-05-17T04:33:42.896Z,3.50
2023-05-17T04:36:26.745Z,3.20
2023-05-17T04:39:10.548Z,3.10
2023-05-17T04:41:53.810Z,3.30
2023-05-17T04:44:36.790Z,3.10
2023-05-17T04:47:19.707Z,3.00
2023-05-17T04:50:04.762Z,3.30
2023-05-17T04:52:48.007Z,3.40
2023-05-17T04:55:31.157Z,3.20
2023-05-17T04:58:14.901Z,3.90
2023-05-17T05:00:59.050Z,3.50
2023-05-17T05:03:42.427Z,4.00
2023-05-17T05:06:25.830Z,3.10
2023-05-17T05:09:08.716Z,3.30
2023-05-17T05:11:52.201Z,3.70
2023-05-17T05:14:35.252Z,3.40
2023-05-17T05:17:18.884Z,3.90
2023-05-17T05:20:05.652Z,3.50
2023-05-17T05:22:48.951Z,3.40
2023-05-17T05:25:33.366Z,3.10
2023-05-17T05:28:16.674Z,3.90
2023-05-17T05:31:00.889Z,3.70
2023-05-17T05:33:48.262Z,3.20
2023-05-17T05:36:31.614Z,5.50
2023-05-17T05:39:16.182Z,4.00
2023-05-17T05:41:59.487Z,3.50
2023-05-17T05:44:42.797Z,4.20
2023-05-17T05:47:26.410Z,3.80
2023-05-17T05:50:09.879Z,3.70
2023-05-17T05:52:56.258Z,3.90
2023-05-17T05:55:47.235Z,4.10
2023-05-17T05:58:32.719Z,3.80
2023-05-17T06:01:16.080Z,4.40
2023-05-17T06:03:58.936Z,4.40
2023-05-17T06:06:42.335Z,4.30
2023-05-17T06:09:25.251Z,4.20
2023-05-17T06:12:08.351Z,4.90
2023-05-17T06:14:51.268Z,4.50
2023-05-17T06:17:34.157Z,4.20
2023-05-17T06:20:17.033Z,4.50
2023-05-17T06:22:59.901Z,5.10
2023-05-17T06:25:42.908Z,3.90
2023-05-17T06:28:26.394Z,4.00
2023-05-17T06:31:09.367Z,4.90
2023-05-17T06:33:52.284Z,4.80
2023-05-17T06:36:35.993Z,4.00
2023-05-17T06:39:20.490Z,4.50
2023-05-17T06:42:03.485Z,4.60
2023-05-17T06:44:50.733Z,4.00
2023-05-17T06:47:33.736Z,4.70
2023-05-17T06:50:16.799Z,4.10
2023-05-17T06:52:59.709Z,3.60
2023-05-17T06:55:43.250Z,4.50
2023-05-17T06:58:26.697Z,4.30
2023-05-17T07:01:09.557Z,3.60
2023-05-17T07:09:46.632Z,4.60
2023-05-17T07:12:29.640Z,5.40
2023-05-17T07:15:12.735Z,4.40
2023-05-17T07:17:55.889Z,4.60
2023-05-17T07:20:38.906Z,3.90
2023-05-17T07:23:21.971Z,3.50
2023-05-17T07:26:05.127Z,3.90
2023-05-17T07:28:49.107Z,4.50
2023-05-17T07:31:32.357Z,4.90
2023-05-17T07:34:15.609Z,4.40
2023-05-17T07:36:58.948Z,4.40
2023-05-17T07:39:42.082Z,4.10
2023-05-17T07:42:25.096Z,4.10
2023-05-17T07:45:09.297Z,4.00
2023-05-17T07:47:52.350Z,4.80
2023-05-17T07:50:36.214Z,3.80
2023-05-17T07:53:19.481Z,3.40
2023-05-17T07:56:02.398Z,3.40
2023-05-17T07:58:45.887Z,3.70
2023-05-17T08:01:28.884Z,3.80
2023-05-17T08:04:11.880Z,4.00
2023-05-17T08:06:55.839Z,3.40
2023-05-17T08:09:40.269Z,3.90
2023-05-17T08:12:23.294Z,3.90
2023-05-17T08:15:09.623Z,4.10
2023-05-17T08:17:52.627Z,3.80
2023-05-17T08:20:36.491Z,4.20
2023-05-17T08:23:19.532Z,5.00
2023-05-17T08:26:02.593Z,3.70
2023-05-17T08:28:45.903Z,3.20
2023-05-17T08:31:29.352Z,3.60
2023-05-17T08:34:12.619Z,3.60
2023-05-17T08:36:56.110Z,3.40
2023-05-17T08:39:38.988Z,3.80
2023-05-17T08:42:26.672Z,4.80
2023-05-17T08:45:11.201Z,5.30
2023-05-17T08:47:54.875Z,4.80
2023-05-17T08:50:38.338Z,4.10
2023-05-17T08:53:22.248Z,3.40
2023-05-17T08:56:07.220Z,3.80
2023-05-17T08:58:59.033Z,3.50
2023-05-17T09:01:44.197Z,5.60
2023-05-17T09:04:30.690Z,3.40
2023-05-17T09:07:14.676Z,4.40
2023-05-17T09:09:59.182Z,3.90
2023-05-17T09:12:42.458Z,3.70
2023-05-17T09:15:27.208Z,3.20
2023-05-17T09:18:14.000Z,3.30
2023-05-17T09:21:06.414Z,3.10
2023-05-17T09:24:01.609Z,3.70
2023-05-17T09:26:48.267Z,2.30
2023-05-17T09:29:32.853Z,3.20
2023-05-17T09:32:17.805Z,3.20
2023-05-17T09:35:02.873Z,3.00
2023-05-17T09:37:47.308Z,3.40
2023-05-17T09:40:30.349Z,3.60
2023-05-17T09:43:14.753Z,3.20
2023-05-17T09:45:58.849Z,3.10
2023-05-17T09:48:44.206Z,3.30
2023-05-17T09:51:33.975Z,3.40
2023-05-17T09:54:18.041Z,3.20
2023-05-17T09:57:07.810Z,3.30
2023-05-17T09:59:51.753Z,2.70
2023-05-17T10:02:37.305Z,3.40
2023-05-17T10:05:21.306Z,3.00
2023-05-17T10:08:06.033Z,2.60
2023-05-17T10:10:53.151Z,3.60
2023-05-17T10:13:49.960Z,3.20
2023-05-17T10:16:34.632Z,4.20
2023-05-17T10:19:21.348Z,3.70
2023-05-17T10:22:21.871Z,3.60
2023-05-17T10:25:08.892Z,4.00
2023-05-17T10:27:52.537Z,3.30
2023-05-17T10:30:36.230Z,3.20
2023-05-17T10:33:22.117Z,3.30
2023-05-17T10:36:06.707Z,4.50
2023-05-17T10:38:49.969Z,3.70
2023-05-17T10:41:37.328Z,3.80
2023-05-17T10:44:22.138Z,4.30
2023-05-17T10:47:05.259Z,3.60
2023-05-17T10:49:50.306Z,3.70
2023-05-17T10:52:33.538Z,3.90
2023-05-17T10:55:21.380Z,4.20
2023-05-17T10:58:16.095Z,4.00
2023-05-17T11:00:59.241Z,3.40
2023-05-17T11:03:42.709Z,3.40
2023-05-17T11:06:26.091Z,3.40
2023-05-17T11:09:16.726Z,3.00
2023-05-17T11:12:10.771Z,4.20
2023-05-17T11:14:55.185Z,3.20
2023-05-17T11:17:44.432Z,4.00
2023-05-17T11:20:28.090Z,3.50
2023-05-17T11:23:18.900Z,3.90
2023-05-17T11:26:16.702Z,3.60
2023-05-17T11:29:03.037Z,3.60
2023-05-17T11:31:51.551Z,3.50
2023-05-17T11:34:34.715Z,5.00
2023-05-17T11:37:27.128Z,3.50
2023-05-17T11:40:13.226Z,3.00
2023-05-17T11:43:18.104Z,3.90
2023-05-17T11:46:06.122Z,4.20
2023-05-17T11:48:52.142Z,3.60
2023-05-17T11:51:35.292Z,3.20
2023-05-17T11:54:19.018Z,3.50
2023-05-17T11:57:04.106Z,3.00
2023-05-17T11:59:47.495Z,3.00
2023-05-17T12:02:31.986Z,3.00
2023-05-17T12:05:20.553Z,2.50
2023-05-17T12:08:03.809Z,3.00
2023-05-17T12:10:52.256Z,3.10
2023-05-17T12:13:35.969Z,3.20
2023-05-17T12:16:22.252Z,2.40
2023-05-17T12:19:05.431Z,3.30
2023-05-17T12:21:49.623Z,2.60
2023-05-17T12:24:40.397Z,2.50
2023-05-17T12:27:31.208Z,2.30
2023-05-17T12:30:16.149Z,3.70
2023-05-17T12:32:59.288Z,2.50
2023-05-17T12:35:42.659Z,2.50
2023-05-17T12:38:28.505Z,3.30
2023-05-17T12:41:13.092Z,2.80
2023-05-17T12:44:03.033Z,2.20
2023-05-17T12:46:57.922Z,3.00
2023-05-17T12:49:55.388Z,2.80
2023-05-17T12:52:41.173Z,2.60
2023-05-17T12:55:24.423Z,2.80
2023-05-17T12:58:07.359Z,2.80
2023-05-17T13:00:58.571Z,3.20
2023-05-17T13:03:41.906Z,2.90
2023-05-17T13:06:25.106Z,2.60
2023-05-17T13:09:08.490Z,4.50
2023-05-17T13:11:52.702Z,2.70
2023-05-17T13:14:41.923Z,3.80
2023-05-17T13:17:35.132Z,3.30
2023-05-17T13:20:18.786Z,2.90
2023-05-17T13:23:01.788Z,3.50
2023-05-17T13:25:44.629Z,2.80
2023-05-17T13:28:27.586Z,3.20
2023-05-17T13:31:10.513Z,2.90
2023-05-17T13:33:53.965Z,3.20
2023-05-17T13:36:37.207Z,3.40
2023-05-17T13:39:21.264Z,3.00
2023-05-17T13:42:04.743Z,3.20
2023-05-17T13:44:48.937Z,2.30
2023-05-17T13:47:32.461Z,3.20
2023-05-17T13:50:17.639Z,2.90
2023-05-17T13:53:02.262Z,3.00
2023-05-17T13:55:45.265Z,2.40
2023-05-17T13:58:28.406Z,4.10
2023-05-17T14:01:11.561Z,2.70
2023-05-17T14:03:55.483Z,2.70
2023-05-17T14:06:39.186Z,2.60
2023-05-17T14:09:22.154Z,2.70
2023-05-17T14:12:05.699Z,2.70
2023-05-17T14:14:48.582Z,3.40
2023-05-17T14:17:33.352Z,2.80
2023-05-17T14:20:16.705Z,3.80
2023-05-17T14:23:00.784Z,3.10
2023-05-17T14:25:43.988Z,2.20
2023-05-17T14:28:26.954Z,3.10
2023-05-17T14:31:10.952Z,2.40
2023-05-17T14:33:54.221Z,2.80
2023-05-17T14:36:38.438Z,2.70
2023-05-17T14:39:21.471Z,2.90
2023-05-17T14:42:04.735Z,3.20
2023-05-17T14:44:47.720Z,3.20
2023-05-17T14:47:30.611Z,2.60
2023-05-17T14:50:13.496Z,2.50
2023-05-17T14:52:56.457Z,2.70
2023-05-17T14:55:39.603Z,3.10
2023-05-17T14:58:22.614Z,3.10
2023-05-17T15:01:07.034Z,3.10
2023-05-17T15:03:50.894Z,3.40
2023-05-17T15:06:34.047Z,2.70
2023-05-17T15:09:18.396Z,3.10
2023-05-17T15:12:01.337Z,2.90
2023-05-17T15:14:45.763Z,2.70
2023-05-17T15:17:29.296Z,2.70
2023-05-17T15:20:13.421Z,2.80
2023-05-17T15:22:56.874Z,3.10
2023-05-17T15:25:39.889Z,2.90
2023-05-17T15:28:23.908Z,3.10
2023-05-17T15:31:10.640Z,3.10
2023-05-17T15:33:53.641Z,3.40
2023-05-17T15:36:36.784Z,5.20
2023-05-17T15:39:19.808Z,3.60
2023-05-17T15:42:03.417Z,3.30
2023-05-17T15:44:46.271Z,2.90
2023-05-17T15:47:42.524Z,2.80
2023-05-17T15:50:26.766Z,2.50
2023-05-17T15:53:09.716Z,2.50
2023-05-17T15:55:52.739Z,2.50
2023-05-17T15:58:35.730Z,3.30
2023-05-17T16:01:19.082Z,2.60
2023-05-17T16:04:02.069Z,2.70
2023-05-17T16:06:45.178Z,3.00
2023-05-17T16:09:28.418Z,2.90
2023-05-17T16:12:11.375Z,2.70
2023-05-17T16:14:54.206Z,3.30
2023-05-17T16:17:37.099Z,2.60
2023-05-17T16:20:21.934Z,2.80
2023-05-17T16:23:06.179Z,2.60
2023-05-17T16:25:48.993Z,3.00
2023-05-17T16:28:32.544Z,3.00
2023-05-17T16:31:15.554Z,2.80
2023-05-17T16:33:58.698Z,2.80
2023-05-17T16:36:42.009Z,2.30
2023-05-17T16:39:27.277Z,3.10
2023-05-17T16:42:10.198Z,2.90
2023-05-17T16:44:53.195Z,2.60
2023-05-17T16:47:36.304Z,3.10
2023-05-17T16:50:20.935Z,3.20
2023-05-17T16:53:04.285Z,2.90
2023-05-17T16:55:47.292Z,2.90
2023-05-17T16:58:30.141Z,2.70
2023-05-17T17:01:13.255Z,3.20
2023-05-17T17:03:56.859Z,2.90
2023-05-17T17:06:40.160Z,3.20
2023-05-17T17:09:23.019Z,2.90
2023-05-17T17:12:20.230Z,2.90
2023-05-17T17:15:08.049Z,2.40
2023-05-17T17:17:51.283Z,2.80
2023-05-17T17:20:34.864Z,2.80
2023-05-17T17:23:17.848Z,3.40
2023-05-17T17:26:00.725Z,2.40
2023-05-17T17:28:44.055Z,3.40
2023-05-17T17:31:27.540Z,2.60
2023-05-17T17:34:10.451Z,2.80
2023-05-17T17:36:54.135Z,3.50
2023-05-17T17:39:36.961Z,3.20
2023-05-17T17:42:19.894Z,3.10
2023-05-17T17:45:03.000Z,2.80
2023-05-17T17:47:45.958Z,3.90
2023-05-17T17:50:29.291Z,3.60
2023-05-17T17:53:12.609Z,2.80
2023-05-17T17:55:55.521Z,3.50
2023-05-17T17:58:38.442Z,3.00
2023-05-17T18:01:23.008Z,2.70
2023-05-17T18:04:06.323Z,3.50
2023-05-17T18:06:50.216Z,4.10
2023-05-17T18:09:33.309Z,2.70
2023-05-17T18:12:16.238Z,3.00
2023-05-17T18:14:59.132Z,3.00
2023-05-17T18:17:44.196Z,2.90
2023-05-17T18:20:27.492Z,2.90
2023-05-17T18:23:10.795Z,3.70
2023-05-17T18:25:53.655Z,4.10
2023-05-17T18:28:42.602Z,3.30
2023-05-17T18:31:26.294Z,3.80
2023-05-17T18:34:09.688Z,3.40
2023-05-17T18:36:52.634Z,3.10
2023-05-17T18:39:35.766Z,3.40
2023-05-17T18:42:19.579Z,3.60
2023-05-17T18:45:02.795Z,4.00
2023-05-17T18:47:45.852Z,5.00
2023-05-17T18:50:29.821Z,3.00
2023-05-17T18:53:13.175Z,3.00
2023-05-17T18:55:56.106Z,4.50
2023-05-17T18:58:38.989Z,5.50
2023-05-17T19:01:21.953Z,4.30
2023-05-17T19:04:05.088Z,4.10
2023-05-17T19:06:48.670Z,3.90
2023-05-17T19:09:33.629Z,4.00
2023-05-17T19:12:16.761Z,3.90
2023-05-17T19:14:59.575Z,4.10
2023-05-17T19:17:42.654Z,3.70
2023-05-17T19:20:25.927Z,3.30
2023-05-17T19:23:08.826Z,3.80
2023-05-17T19:25:53.572Z,3.60
2023-05-17T19:28:36.839Z,3.40
2023-05-17T19:31:19.752Z,3.20
2023-05-17T19:34:02.614Z,4.00
2023-05-17T19:36:45.645Z,3.60
2023-05-17T19:39:28.468Z,3.80
2023-05-17T19:42:11.406Z,3.30
2023-05-17T19:44:54.330Z,3.60
2023-05-17T19:47:37.293Z,3.00
2023-05-17T19:50:20.830Z,3.20
2023-05-17T19:53:04.026Z,3.50
2023-05-17T19:55:48.004Z,3.10
2023-05-17T19:58:31.077Z,4.30
2023-05-17T20:01:14.049Z,3.40
2023-05-17T20:03:57.043Z,4.00
2023-05-17T20:06:40.385Z,5.50
2023-05-17T20:09:26.925Z,4.30
2023-05-17T20:12:10.225Z,4.00
2023-05-17T20:14:53.786Z,4.80
2023-05-17T20:17:36.747Z,5.80
2023-05-17T20:20:19.862Z,5.50
2023-05-17T20:23:03.101Z,4.30
2023-05-17T20:25:46.272Z,4.30
2023-05-17T20:28:29.181Z,4.70
2023-05-17T20:31:12.706Z,3.80
2023-05-17T20:33:55.654Z,3.60
2023-05-17T20:36:38.690Z,3.50
2023-05-17T20:39:22.360Z,3.60
2023-05-17T20:42:05.733Z,3.10
2023-05-17T20:44:48.957Z,3.60
2023-05-17T20:47:32.543Z,3.20
2023-05-17T20:50:17.452Z,3.10
2023-05-17T20:53:01.704Z,3.30
2023-05-17T20:55:44.780Z,3.50
2023-05-17T20:58:29.138Z,4.10
2023-05-17T21:01:12.677Z,3.20
2023-05-17T21:03:58.252Z,3.20
2023-05-17T21:06:42.136Z,2.80
2023-05-17T21:09:26.471Z,3.20
2023-05-17T21:12:09.565Z,2.50
2023-05-17T21:15:07.896Z,4.00
2023-05-17T21:17:55.553Z,2.90
2023-05-17T21:20:39.419Z,3.30
2023-05-17T21:23:22.420Z,3.90
2023-05-17T21:26:08.673Z,3.30
2023-05-17T21:28:51.607Z,3.10
2023-05-17T21:31:34.560Z,2.90
2023-05-17T21:34:17.721Z,2.60
2023-05-17T21:37:00.870Z,3.90
2023-05-17T21:39:43.747Z,3.30
2023-05-17T21:42:26.689Z,2.70
2023-05-17T21:45:11.592Z,3.10
2023-05-17T21:47:54.514Z,3.20
2023-05-17T21:50:37.562Z,2.50
2023-05-17T21:53:20.446Z,3.60
2023-05-17T21:56:03.474Z,3.40
2023-05-17T21:58:46.405Z,3.10
2023-05-17T22:01:29.277Z,3.70
2023-05-17T22:04:12.193Z,3.00
2023-05-17T22:06:56.520Z,3.40
2023-05-17T22:09:39.349Z,4.10
2023-05-17T22:12:25.752Z,4.30
2023-05-17T22:15:09.870Z,3.30
2023-05-17T22:17:53.164Z,3.60
2023-05-17T22:20:36.243Z,3.90
2023-05-17T22:23:21.951Z,3.80
2023-05-17T22:26:05.528Z,3.00
2023-05-17T22:28:49.148Z,3.10
2023-05-17T22:31:34.288Z,3.00
2023-05-17T22:34:17.412Z,3.20
2023-05-17T22:37:00.544Z,2.80
2023-05-17T22:39:43.684Z,2.80
2023-05-17T22:42:26.692Z,3.80
2023-05-17T22:45:12.651Z,3.80
2023-05-17T22:47:57.323Z,3.90
2023-05-17T22:50:40.664Z,3.70
2023-05-17T22:53:23.590Z,3.30
2023-05-17T22:56:06.834Z,4.50
2023-05-17T22:58:49.932Z,3.90
2023-05-17T23:01:32.877Z,3.70
2023-05-17T23:04:16.382Z,3.80
2023-05-17T23:07:02.301Z,3.70
2023-05-17T23:09:45.660Z,3.50
2023-05-17T23:12:28.869Z,4.10
2023-05-17T23:15:11.989Z,3.70
2023-05-17T23:17:55.953Z,3.10
2023-05-17T23:20:38.980Z,4.10
2023-05-17T23:23:23.224Z,3.80
2023-05-17T23:26:06.603Z,3.30
2023-05-17T23:28:53.670Z,2.90
2023-05-17T23:31:37.932Z,3.60
2023-05-17T23:34:22.214Z,3.00
2023-05-17T23:37:05.154Z,3.00
2023-05-17T23:39:48.096Z,3.50
2023-05-17T23:42:35.073Z,3.50
2023-05-17T23:45:18.490Z,3.50
2023-05-17T23:48:01.650Z,3.90
2023-05-17T23:50:44.622Z,2.90
2023-05-17T23:53:28.259Z,3.00
2023-05-17T23:56:11.723Z,3.40
2023-05-17T23:58:54.634Z,3.30
